Time;durP1;ratioP1;P1;durP2;ratioP2;P2;SDS_P1;SDS_P2;PMS_P1;PMS_P2;Temp;Humidity;BMP_temperature;BMP_pressure;BME280_temperature;BME280_humidity;BME280_pressure;Samples;Min_cycle;Max_cycle;Signal;HPM_P1;HPM_P2
2022/03/13 00:00:34;;;;;;;11.80;10.57;;;;;;;;;;5050824;28;20044;-79
2022/03/13 00:03:04;;;;;;;12.18;10.98;;;;;;;;;;5051945;28;20095;-80
2022/03/13 00:05:32;;;;;;;12.38;11.18;;;;;;;;;;5052094;28;20052;-80
2022/03/13 00:07:58;;;;;;;12.35;11.15;;;;;;;;;;5058377;28;20069;-80
2022/03/13 00:10:27;;;;;;;12.45;11.27;;;;;;;;;;5060955;28;20068;-80
2022/03/13 00:12:54;;;;;;;12.68;11.43;;;;;;;;;;5050569;28;20055;-81
2022/03/13 00:15:24;;;;;;;12.82;11.52;;;;;;;;;;5069694;28;20110;-80
2022/03/13 00:17:50;;;;;;;12.63;11.48;;;;;;;;;;5066409;28;20052;-80
2022/03/13 00:20:17;;;;;;;12.48;11.10;;;;;;;;;;5055340;28;20129;-80
2022/03/13 00:22:44;;;;;;;12.77;11.48;;;;;;;;;;5054027;28;20093;-80
2022/03/13 00:25:10;;;;;;;12.27;11.10;;;;;;;;;;5062810;28;20076;-80
2022/03/13 00:27:36;;;;;;;12.43;11.23;;;;;;;;;;5046863;28;20399;-79
2022/03/13 00:30:04;;;;;;;11.93;10.60;;;;;;;;;;5057006;28;20041;-80
2022/03/13 00:32:30;;;;;;;15.73;14.23;;;;;;;;;;5059360;28;20522;-80
2022/03/13 00:34:56;;;;;;;13.35;11.88;;;;;;;;;;5053217;28;20063;-80
2022/03/13 00:37:23;;;;;;;12.77;11.57;;;;;;;;;;5051428;28;20065;-80
2022/03/13 00:39:50;;;;;;;12.82;11.00;;;;;;;;;;5059396;28;20037;-80
2022/03/13 00:42:17;;;;;;;12.95;11.65;;;;;;;;;;5054377;28;20084;-80
2022/03/13 00:44:43;;;;;;;13.07;11.75;;;;;;;;;;5052211;28;20415;-80
2022/03/13 00:47:12;;;;;;;12.38;11.07;;;;;;;;;;5057696;28;20037;-79
2022/03/13 00:49:38;;;;;;;13.05;11.60;;;;;;;;;;5072738;28;20488;-80
2022/03/13 00:52:04;;;;;;;12.85;11.57;;;;;;;;;;5076251;28;20473;-80
2022/03/13 00:54:30;;;;;;;13.27;11.98;;;;;;;;;;5075069;28;20048;-80
2022/03/13 00:56:56;;;;;;;13.00;11.65;;;;;;;;;;5052749;28;20060;-80
2022/03/13 00:59:22;;;;;;;12.68;11.48;;;;;;;;;;5075604;28;20052;-80
2022/03/13 01:01:48;;;;;;;13.25;11.85;;;;;;;;;;5077389;28;20404;-80
2022/03/13 01:04:14;;;;;;;13.27;11.98;;;;;;;;;;5083963;28;20040;-80
2022/03/13 01:06:41;;;;;;;12.20;11.05;;;;;;;;;;5078966;28;20051;-80
2022/03/13 01:09:07;;;;;;;13.00;11.32;;;;;;;;;;5071966;28;20067;-81
2022/03/13 01:11:33;;;;;;;13.20;11.75;;;;;;;;;;5049346;28;20503;-80
2022/03/13 01:13:59;;;;;;;13.45;12.15;;;;;;;;;;5066399;28;20078;-80
2022/03/13 01:16:27;;;;;;;12.90;11.60;;;;;;;;;;5049955;28;20399;-82
2022/03/13 01:18:58;;;;;;;13.52;12.13;;;;;;;;;;5065675;28;20059;-80
2022/03/13 01:21:24;;;;;;;13.07;11.82;;;;;;;;;;5065786;28;20044;-80
2022/03/13 01:24:06;;;;;;;13.25;11.95;;;;;;;;;;5048763;28;20055;-80
2022/03/13 01:26:36;;;;;;;12.82;11.52;;;;;;;;;;5072893;28;20083;-80
2022/03/13 01:29:04;;;;;;;12.60;11.40;;;;;;;;;;5066978;28;20044;-80
2022/03/13 01:31:31;;;;;;;12.63;11.32;;;;;;;;;;5047066;28;20049;-80
2022/03/13 01:33:58;;;;;;;13.23;12.02;;;;;;;;;;5074500;28;20032;-80
2022/03/13 01:36:24;;;;;;;13.30;12.05;;;;;;;;;;5067856;28;20402;-80
2022/03/13 01:38:56;;;;;;;12.57;11.15;;;;;;;;;;5076735;28;20094;-80
2022/03/13 01:41:27;;;;;;;13.48;12.18;;;;;;;;;;5069935;28;20128;-80
2022/03/13 01:43:54;;;;;;;13.18;11.88;;;;;;;;;;5054420;28;20070;-80
2022/03/13 01:46:20;;;;;;;12.93;11.63;;;;;;;;;;5075252;28;20085;-80
2022/03/13 01:48:55;;;;;;;13.70;12.40;;;;;;;;;;5047962;28;20148;-80
2022/03/13 01:51:25;;;;;;;13.82;12.52;;;;;;;;;;5057353;28;20060;-79
2022/03/13 01:53:55;;;;;;;12.50;11.35;;;;;;;;;;5056512;28;20393;-79
2022/03/13 01:56:22;;;;;;;13.43;12.02;;;;;;;;;;5061122;28;20041;-80
2022/03/13 01:58:50;;;;;;;12.73;11.43;;;;;;;;;;5053247;28;20048;-79
2022/03/13 02:01:17;;;;;;;13.15;11.85;;;;;;;;;;5051100;28;20097;-80
2022/03/13 02:03:43;;;;;;;12.38;11.07;;;;;;;;;;5045554;28;20045;-80
2022/03/13 02:06:09;;;;;;;13.18;11.80;;;;;;;;;;5046121;28;20567;-80
2022/03/13 02:08:38;;;;;;;13.00;11.70;;;;;;;;;;5050279;28;20133;-80
2022/03/13 02:11:05;;;;;;;12.60;11.07;;;;;;;;;;5058688;28;20041;-79
2022/03/13 02:13:34;;;;;;;13.93;12.23;;;;;;;;;;5054851;28;20169;-80
2022/03/13 02:16:00;;;;;;;12.52;11.32;;;;;;;;;;5048852;28;20049;-80
2022/03/13 02:18:26;;;;;;;13.82;12.32;;;;;;;;;;5048927;28;20045;-80
2022/03/13 02:20:52;;;;;;;12.88;11.68;;;;;;;;;;5043148;28;20037;-80
2022/03/13 02:23:28;;;;;;;13.77;12.45;;;;;;;;;;5061779;28;20396;-80
2022/03/13 02:25:57;;;;;;;13.40;11.90;;;;;;;;;;5055952;28;20041;-79
2022/03/13 02:28:28;;;;;;;13.20;11.90;;;;;;;;;;5048723;28;20106;-80
2022/03/13 02:30:57;;;;;;;13.82;12.18;;;;;;;;;;5047021;28;20044;-80
2022/03/13 02:33:23;;;;;;;13.85;12.35;;;;;;;;;;5061381;28;20120;-80
2022/03/13 02:35:55;;;;;;;13.30;11.93;;;;;;;;;;5064470;28;20051;-80
2022/03/13 02:38:21;;;;;;;12.60;11.30;;;;;;;;;;5059616;28;20032;-80
2022/03/13 02:40:47;;;;;;;12.30;11.02;;;;;;;;;;5043138;28;20051;-80
2022/03/13 02:43:13;;;;;;;12.77;11.45;;;;;;;;;;5060951;28;20037;-81
2022/03/13 02:45:39;;;;;;;13.68;11.38;;;;;;;;;;5057144;28;20048;-79
2022/03/13 02:48:07;;;;;;;13.00;11.57;;;;;;;;;;5051373;28;20621;-80
2022/03/13 02:50:34;;;;;;;12.15;10.95;;;;;;;;;;5052277;28;20127;-80
2022/03/13 02:53:00;;;;;;;12.48;11.18;;;;;;;;;;5050838;28;20036;-80
2022/03/13 02:55:26;;;;;;;13.07;11.77;;;;;;;;;;5060478;28;20128;-80
2022/03/13 02:57:55;;;;;;;11.30;10.10;;;;;;;;;;5062546;28;20067;-80
2022/03/13 03:00:22;;;;;;;11.85;10.65;;;;;;;;;;5060838;28;20154;-80
2022/03/13 03:02:49;;;;;;;12.50;10.60;;;;;;;;;;5055979;28;20040;-80
2022/03/13 03:05:16;;;;;;;11.63;10.48;;;;;;;;;;5054540;28;20431;-80
2022/03/13 03:07:42;;;;;;;12.23;10.88;;;;;;;;;;5051627;28;20128;-80
2022/03/13 03:10:14;;;;;;;12.38;11.18;;;;;;;;;;5054380;28;20116;-80
2022/03/13 03:12:40;;;;;;;12.73;11.43;;;;;;;;;;5056316;28;20048;-80
2022/03/13 03:15:06;;;;;;;13.27;11.77;;;;;;;;;;5064201;28;20035;-80
2022/03/13 03:17:32;;;;;;;12.55;11.35;;;;;;;;;;5042429;28;20051;-80
2022/03/13 03:20:01;;;;;;;12.65;11.45;;;;;;;;;;5053443;28;20032;-80
2022/03/13 03:22:27;;;;;;;12.38;11.18;;;;;;;;;;5048748;28;20041;-80
2022/03/13 03:24:53;;;;;;;12.77;11.55;;;;;;;;;;5046310;28;20037;-80
2022/03/13 03:27:22;;;;;;;12.75;11.50;;;;;;;;;;5048084;28;20036;-79
2022/03/13 03:29:48;;;;;;;13.45;12.07;;;;;;;;;;5049124;28;20029;-80
2022/03/13 03:32:15;;;;;;;12.48;11.23;;;;;;;;;;5044213;28;20045;-80
2022/03/13 03:34:41;;;;;;;14.35;12.82;;;;;;;;;;5042068;28;20507;-79
2022/03/13 03:37:07;;;;;;;13.10;11.80;;;;;;;;;;5045005;28;20067;-80
2022/03/13 03:39:33;;;;;;;12.63;11.43;;;;;;;;;;5042087;28;20087;-80
2022/03/13 03:42:02;;;;;;;12.70;11.50;;;;;;;;;;5039940;28;20504;-79
2022/03/13 03:44:34;;;;;;;12.77;11.48;;;;;;;;;;5047240;28;20044;-80
2022/03/13 03:47:00;;;;;;;13.07;11.80;;;;;;;;;;5048225;28;20496;-79
2022/03/13 03:49:26;;;;;;;13.48;11.88;;;;;;;;;;5044985;28;20060;-80
2022/03/13 03:51:53;;;;;;;13.10;11.77;;;;;;;;;;5049235;28;20049;-80
2022/03/13 03:54:19;;;;;;;12.90;11.60;;;;;;;;;;5063977;28;20040;-80
2022/03/13 03:56:45;;;;;;;13.90;12.50;;;;;;;;;;5065904;28;20045;-79
2022/03/13 03:59:11;;;;;;;13.45;12.10;;;;;;;;;;5057897;28;20036;-80
2022/03/13 04:01:38;;;;;;;13.35;11.95;;;;;;;;;;5043852;28;20045;-79
2022/03/13 04:04:05;;;;;;;12.90;11.57;;;;;;;;;;5060149;28;20079;-80
2022/03/13 04:06:33;;;;;;;12.55;11.25;;;;;;;;;;5052351;28;20071;-80
2022/03/13 04:09:00;;;;;;;13.35;11.57;;;;;;;;;;5051999;28;20033;-80
2022/03/13 04:11:26;;;;;;;12.48;11.27;;;;;;;;;;5050243;28;20131;-80
2022/03/13 04:13:52;;;;;;;13.48;12.07;;;;;;;;;;5059689;28;20119;-80
2022/03/13 04:16:18;;;;;;;13.75;12.35;;;;;;;;;;5053582;28;20041;-79
2022/03/13 04:18:44;;;;;;;13.38;12.02;;;;;;;;;;5050975;28;20515;-80
2022/03/13 04:21:10;;;;;;;12.43;11.13;;;;;;;;;;5042638;28;20048;-80
2022/03/13 04:23:36;;;;;;;12.68;11.38;;;;;;;;;;5052443;28;20518;-80
2022/03/13 04:26:05;;;;;;;12.77;11.48;;;;;;;;;;5064891;28;20094;-80
2022/03/13 04:28:33;;;;;;;12.38;11.07;;;;;;;;;;5047381;28;20033;-80
2022/03/13 04:31:00;;;;;;;12.32;11.13;;;;;;;;;;5040518;28;20083;-80
2022/03/13 04:33:27;;;;;;;14.02;12.43;;;;;;;;;;5055726;28;20068;-80
2022/03/13 04:35:55;;;;;;;13.35;11.45;;;;;;;;;;5060967;28;20048;-80
2022/03/13 04:38:23;;;;;;;12.85;11.52;;;;;;;;;;5044577;28;20387;-80
2022/03/13 04:40:51;;;;;;;12.30;11.10;;;;;;;;;;5059819;28;20064;-80
2022/03/13 04:43:17;;;;;;;12.57;11.23;;;;;;;;;;5059635;28;20814;-80
2022/03/13 04:45:43;;;;;;;13.20;10.57;;;;;;;;;;5045695;28;20037;-80
2022/03/13 04:48:09;;;;;;;13.13;11.52;;;;;;;;;;5051696;28;20083;-80
2022/03/13 04:50:35;;;;;;;11.90;10.65;;;;;;;;;;5071266;28;20106;-80
2022/03/13 04:53:01;;;;;;;11.48;10.38;;;;;;;;;;5053464;28;20041;-80
2022/03/13 04:55:27;;;;;;;11.77;10.57;;;;;;;;;;5060058;28;20554;-80
2022/03/13 04:57:53;;;;;;;12.93;10.70;;;;;;;;;;5080333;28;20668;-80
2022/03/13 05:00:19;;;;;;;11.98;10.73;;;;;;;;;;5063287;28;20514;-79
2022/03/13 05:02:45;;;;;;;12.13;10.93;;;;;;;;;;5074356;28;20040;-79
2022/03/13 05:05:11;;;;;;;13.45;12.05;;;;;;;;;;5084326;28;20056;-80
2022/03/13 05:07:38;;;;;;;13.18;11.85;;;;;;;;;;5060276;28;20064;-80
2022/03/13 05:10:05;;;;;;;13.25;11.95;;;;;;;;;;5080033;28;20111;-80
2022/03/13 05:12:32;;;;;;;13.35;11.90;;;;;;;;;;5064376;28;20483;-80
2022/03/13 05:14:59;;;;;;;14.05;12.05;;;;;;;;;;5059267;28;20110;-80
2022/03/13 05:17:25;;;;;;;14.43;12.98;;;;;;;;;;5071393;28;20041;-80
2022/03/13 05:19:51;;;;;;;13.30;11.85;;;;;;;;;;5087103;28;20109;-79
2022/03/13 05:22:20;;;;;;;14.52;13.02;;;;;;;;;;5052612;28;20438;-80
2022/03/13 05:24:46;;;;;;;13.90;12.45;;;;;;;;;;5059676;28;20052;-79
2022/03/13 05:27:12;;;;;;;14.27;12.77;;;;;;;;;;5069797;28;20764;-80
2022/03/13 05:29:38;;;;;;;14.77;13.27;;;;;;;;;;5046875;28;20102;-79
2022/03/13 05:32:04;;;;;;;15.05;13.60;;;;;;;;;;5063375;28;20036;-80
2022/03/13 05:34:30;;;;;;;13.77;12.38;;;;;;;;;;5070748;28;20048;-80
2022/03/13 05:36:56;;;;;;;13.55;12.20;;;;;;;;;;5079829;28;20047;-80
2022/03/13 05:39:22;;;;;;;14.63;12.82;;;;;;;;;;5075678;28;20040;-80
2022/03/13 05:41:48;;;;;;;13.85;12.45;;;;;;;;;;5060670;28;20044;-80
2022/03/13 05:44:15;;;;;;;14.75;13.25;;;;;;;;;;5069360;28;20036;-80
2022/03/13 05:46:41;;;;;;;14.40;12.68;;;;;;;;;;5083078;28;20433;-79
2022/03/13 05:49:08;;;;;;;14.45;13.00;;;;;;;;;;5070905;28;20511;-80
2022/03/13 05:51:37;;;;;;;15.50;13.90;;;;;;;;;;5050702;28;20519;-80
2022/03/13 05:54:06;;;;;;;15.35;13.75;;;;;;;;;;5049798;28;20472;-80
2022/03/13 05:56:32;;;;;;;14.88;13.38;;;;;;;;;;5074748;28;20037;-80
2022/03/13 05:58:58;;;;;;;14.45;13.05;;;;;;;;;;5068409;28;20039;-79
2022/03/13 06:01:24;;;;;;;14.80;13.30;;;;;;;;;;5054369;28;20045;-80
2022/03/13 06:03:51;;;;;;;14.60;13.20;;;;;;;;;;5073030;28;20044;-80
2022/03/13 06:06:17;;;;;;;14.50;13.00;;;;;;;;;;5072061;28;20522;-80
2022/03/13 06:08:44;;;;;;;14.00;12.60;;;;;;;;;;5065909;28;20483;-80
2022/03/13 06:11:10;;;;;;;15.23;13.63;;;;;;;;;;5073503;28;20123;-80
2022/03/13 06:13:36;;;;;;;15.55;13.95;;;;;;;;;;5072208;28;20123;-80
2022/03/13 06:16:03;;;;;;;14.25;12.85;;;;;;;;;;5071064;28;20049;-80
2022/03/13 06:18:29;;;;;;;14.82;13.35;;;;;;;;;;5056534;28;20044;-80
2022/03/13 06:20:55;;;;;;;14.07;12.68;;;;;;;;;;5076916;28;20078;-80
2022/03/13 06:23:23;;;;;;;14.60;13.20;;;;;;;;;;5081335;28;20052;-80
2022/03/13 06:25:49;;;;;;;14.30;12.88;;;;;;;;;;5049263;28;20514;-80
2022/03/13 06:28:16;;;;;;;14.10;12.60;;;;;;;;;;5076601;28;20052;-80
2022/03/13 06:30:43;;;;;;;13.80;12.48;;;;;;;;;;5076681;28;20065;-79
2022/03/13 06:33:09;;;;;;;14.45;13.02;;;;;;;;;;5068547;28;20407;-80
2022/03/13 06:35:35;;;;;;;14.35;12.85;;;;;;;;;;5060294;28;20039;-80
2022/03/13 06:38:01;;;;;;;14.73;13.23;;;;;;;;;;5062449;28;20048;-80
2022/03/13 06:40:27;;;;;;;13.27;11.95;;;;;;;;;;5076393;28;20036;-79
2022/03/13 06:42:54;;;;;;;14.05;12.65;;;;;;;;;;5040860;28;20083;-80
2022/03/13 06:45:20;;;;;;;14.18;12.75;;;;;;;;;;5075087;28;20120;-80
2022/03/13 06:47:49;;;;;;;13.60;12.27;;;;;;;;;;5052146;28;20048;-80
2022/03/13 06:50:17;;;;;;;13.77;12.38;;;;;;;;;;5072548;28;20178;-79
2022/03/13 06:52:47;;;;;;;13.27;11.98;;;;;;;;;;5063235;28;20100;-80
2022/03/13 06:55:17;;;;;;;14.70;12.65;;;;;;;;;;5060988;28;20420;-79
2022/03/13 06:57:43;;;;;;;14.32;12.82;;;;;;;;;;5080905;28;20047;-80
2022/03/13 07:00:10;;;;;;;13.25;11.93;;;;;;;;;;5078506;28;20043;-80
2022/03/13 07:02:36;;;;;;;13.50;12.10;;;;;;;;;;5055863;28;20033;-80
2022/03/13 07:05:03;;;;;;;13.65;12.35;;;;;;;;;;5074672;28;20131;-80
2022/03/13 07:07:29;;;;;;;14.23;12.73;;;;;;;;;;5063101;28;20075;-80
2022/03/13 07:09:57;;;;;;;12.85;11.55;;;;;;;;;;5072579;28;20491;-80
2022/03/13 07:12:23;;;;;;;13.35;11.95;;;;;;;;;;5077416;28;20114;-80
2022/03/13 07:14:50;;;;;;;12.45;11.30;;;;;;;;;;5078910;28;20198;-79
2022/03/13 07:17:16;;;;;;;12.35;10.95;;;;;;;;;;5077800;28;20040;-80
2022/03/13 07:19:45;;;;;;;13.18;11.77;;;;;;;;;;5059555;28;20115;-80
2022/03/13 07:22:12;;;;;;;13.32;11.98;;;;;;;;;;5055347;28;20542;-80
2022/03/13 07:24:38;;;;;;;12.07;10.75;;;;;;;;;;5080438;28;20431;-79
2022/03/13 07:27:05;;;;;;;12.95;11.07;;;;;;;;;;5076097;28;20048;-79
2022/03/13 07:29:31;;;;;;;12.18;10.30;;;;;;;;;;5072067;28;20048;-79
2022/03/13 07:31:57;;;;;;;12.65;10.32;;;;;;;;;;5056553;28;20044;-80
2022/03/13 07:34:24;;;;;;;14.98;10.38;;;;;;;;;;5051689;28;20048;-79
2022/03/13 07:36:51;;;;;;;11.63;10.13;;;;;;;;;;5051845;28;20569;-80
2022/03/13 07:39:21;;;;;;;11.82;10.05;;;;;;;;;;5060888;28;20480;-80
2022/03/13 07:41:49;;;;;;;11.68;10.48;;;;;;;;;;5062641;28;20404;-80
2022/03/13 07:44:15;;;;;;;11.38;10.25;;;;;;;;;;5030526;28;20057;-80
2022/03/13 07:46:41;;;;;;;11.40;9.82;;;;;;;;;;5073280;28;20043;-79
2022/03/13 07:49:07;;;;;;;12.30;10.63;;;;;;;;;;5065982;28;20079;-79
2022/03/13 07:51:34;;;;;;;12.55;10.38;;;;;;;;;;5052202;28;20103;-80
2022/03/13 07:54:01;;;;;;;12.65;10.07;;;;;;;;;;5070153;28;20044;-79
2022/03/13 07:56:27;;;;;;;10.75;9.63;;;;;;;;;;5054086;28;20052;-79
2022/03/13 07:58:53;;;;;;;11.20;9.70;;;;;;;;;;5069060;28;20045;-80
2022/03/13 08:01:19;;;;;;;11.95;10.75;;;;;;;;;;5065074;28;20075;-80
2022/03/13 08:03:47;;;;;;;13.07;9.40;;;;;;;;;;5045112;28;20380;-80
2022/03/13 08:06:13;;;;;;;11.93;9.60;;;;;;;;;;5058833;28;20053;-80
2022/03/13 08:08:39;;;;;;;11.50;10.30;;;;;;;;;;5044968;28;20056;-79
2022/03/13 08:11:05;;;;;;;9.93;8.93;;;;;;;;;;5044224;28;20033;-79
2022/03/13 08:13:31;;;;;;;11.15;9.48;;;;;;;;;;5037665;28;20044;-79
2022/03/13 08:15:57;;;;;;;10.98;9.57;;;;;;;;;;5058319;28;20045;-79
2022/03/13 08:18:23;;;;;;;12.13;9.55;;;;;;;;;;5049200;28;20517;-79
2022/03/13 08:20:53;;;;;;;11.75;9.85;;;;;;;;;;5063284;28;20041;-79
2022/03/13 08:23:19;;;;;;;11.65;9.27;;;;;;;;;;5071023;28;20036;-79
2022/03/13 08:25:45;;;;;;;10.75;9.52;;;;;;;;;;5063152;28;20040;-80
2022/03/13 08:28:11;;;;;;;10.25;9.25;;;;;;;;;;5077912;28;20178;-80
2022/03/13 08:30:37;;;;;;;12.18;10.60;;;;;;;;;;5085950;28;20082;-79
2022/03/13 08:33:05;;;;;;;10.77;9.68;;;;;;;;;;5061872;28;20055;-80
2022/03/13 08:35:31;;;;;;;11.60;10.40;;;;;;;;;;5087524;28;20454;-80
2022/03/13 08:37:58;;;;;;;11.35;10.10;;;;;;;;;;5072877;28;20048;-80
2022/03/13 08:40:25;;;;;;;11.38;10.18;;;;;;;;;;5079461;28;20048;-80
2022/03/13 08:42:51;;;;;;;11.50;10.30;;;;;;;;;;5075578;28;20044;-80
2022/03/13 08:45:20;;;;;;;10.75;9.65;;;;;;;;;;5075317;28;20089;-80
2022/03/13 08:47:47;;;;;;;11.63;10.43;;;;;;;;;;5074032;28;20063;-80
2022/03/13 08:50:14;;;;;;;12.02;10.15;;;;;;;;;;5076880;28;20044;-79
2022/03/13 08:52:40;;;;;;;11.48;10.20;;;;;;;;;;5074984;28;20037;-80
2022/03/13 08:55:08;;;;;;;11.63;10.43;;;;;;;;;;5054259;28;20055;-79
2022/03/13 08:57:34;;;;;;;11.07;9.88;;;;;;;;;;5075939;28;20500;-80
2022/03/13 09:00:00;;;;;;;12.93;9.40;;;;;;;;;;5075922;28;20485;-80
2022/03/13 09:02:26;;;;;;;11.57;10.10;;;;;;;;;;5080574;28;21033;-80
2022/03/13 09:04:53;;;;;;;12.38;10.23;;;;;;;;;;5082327;28;20487;-80
2022/03/13 09:07:19;;;;;;;13.20;9.88;;;;;;;;;;5072678;28;20395;-81
2022/03/13 09:09:45;;;;;;;11.57;10.20;;;;;;;;;;5067321;28;20518;-81
2022/03/13 09:12:17;;;;;;;10.98;9.40;;;;;;;;;;5073807;28;20078;-80
2022/03/13 09:14:46;;;;;;;11.80;10.23;;;;;;;;;;5065683;28;20110;-80
2022/03/13 09:17:14;;;;;;;12.15;9.63;;;;;;;;;;5050834;28;20392;-80
2022/03/13 09:19:40;;;;;;;12.55;10.57;;;;;;;;;;5069611;28;20554;-81
2022/03/13 09:22:06;;;;;;;12.23;9.98;;;;;;;;;;5045080;28;20045;-79
2022/03/13 09:24:32;;;;;;;11.95;10.75;;;;;;;;;;5049204;28;20148;-80
2022/03/13 09:26:58;;;;;;;12.30;10.73;;;;;;;;;;5072001;28;20139;-80
2022/03/13 09:29:24;;;;;;;11.35;10.13;;;;;;;;;;5063013;28;20039;-80
2022/03/13 09:31:50;;;;;;;11.90;10.65;;;;;;;;;;5066846;28;20427;-80
2022/03/13 09:34:16;;;;;;;11.77;10.07;;;;;;;;;;5048201;28;20132;-80
2022/03/13 09:36:43;;;;;;;10.95;9.90;;;;;;;;;;5048259;28;20099;-80
2022/03/13 09:39:09;;;;;;;11.30;10.20;;;;;;;;;;5072292;28;20144;-81
2022/03/13 09:41:38;;;;;;;11.77;10.63;;;;;;;;;;5050616;28;20068;-81
2022/03/13 09:44:04;;;;;;;10.63;9.52;;;;;;;;;;5067784;28;20044;-81
2022/03/13 09:46:31;;;;;;;11.82;10.52;;;;;;;;;;5060742;28;20068;-84
2022/03/13 09:48:58;;;;;;;11.38;10.18;;;;;;;;;;5042638;28;20496;-83
2022/03/13 09:51:24;;;;;;;11.57;10.40;;;;;;;;;;5059731;28;20127;-83
2022/03/13 09:53:50;;;;;;;12.25;10.48;;;;;;;;;;5051356;28;20544;-78
2022/03/13 09:56:16;;;;;;;11.05;9.93;;;;;;;;;;5044988;28;20103;-79
2022/03/13 09:58:45;;;;;;;11.57;10.43;;;;;;;;;;5045938;28;20041;-81
2022/03/13 10:01:12;;;;;;;11.77;10.57;;;;;;;;;;5047291;28;20041;-79
2022/03/13 10:03:38;;;;;;;11.60;10.50;;;;;;;;;;5050714;28;20097;-80
2022/03/13 10:06:05;;;;;;;12.10;10.90;;;;;;;;;;5044640;28;20047;-82
2022/03/13 10:08:32;;;;;;;11.85;10.00;;;;;;;;;;5045285;28;20128;-82
2022/03/13 10:10:59;;;;;;;12.02;10.73;;;;;;;;;;5040439;28;20116;-83
2022/03/13 10:13:46;;;;;;;11.77;10.13;;;;;;;;;;5044772;28;20069;-86
2022/03/13 10:16:19;;;;;;;11.60;10.40;;;;;;;;;;5038711;28;20511;-85
2022/03/13 10:18:45;;;;;;;;;;;;;;;;;;5052073;28;20041;-84
2022/03/13 10:21:12;;;;;;;11.55;10.23;;;;;;;;;;5044749;28;19944;-85
2022/03/13 10:23:42;;;;;;;10.75;9.65;;;;;;;;;;5043961;28;20785;-87
2022/03/13 10:26:08;;;;;;;12.13;10.82;;;;;;;;;;5049608;28;20045;-85
2022/03/13 10:28:39;;;;;;;11.82;10.63;;;;;;;;;;5042569;28;20393;-84
2022/03/13 10:31:11;;;;;;;11.48;10.27;;;;;;;;;;5049526;28;20041;-85
2022/03/13 10:33:43;;;;;;;11.80;10.40;;;;;;;;;;5050343;28;20526;-84
2022/03/13 10:36:17;;;;;;;11.48;10.27;;;;;;;;;;5053733;28;20529;-86
2022/03/13 10:38:44;;;;;;;12.13;10.90;;;;;;;;;;5049488;28;20082;-86
2022/03/13 10:41:12;;;;;;;12.18;10.98;;;;;;;;;;5044263;28;20087;-86
2022/03/13 10:43:59;;;;;;;11.48;10.38;;;;;;;;;;5049381;28;20389;-84
2022/03/13 10:46:26;;;;;;;11.50;10.40;;;;;;;;;;5052224;28;20384;-86
2022/03/13 10:48:53;;;;;;;12.23;10.40;;;;;;;;;;5049918;28;20489;-85
2022/03/13 10:51:31;;;;;;;11.77;10.57;;;;;;;;;;5051397;28;20411;-84
2022/03/13 10:53:57;;;;;;;11.77;10.00;;;;;;;;;;5050815;28;20041;-84
2022/03/13 10:56:23;;;;;;;12.50;11.25;;;;;;;;;;5051607;28;20048;-84
2022/03/13 10:58:49;;;;;;;13.23;11.80;;;;;;;;;;5043777;28;20123;-84
2022/03/13 11:01:16;;;;;;;12.88;11.50;;;;;;;;;;5050154;28;20132;-85
2022/03/13 11:03:48;;;;;;;12.23;10.93;;;;;;;;;;5051887;28;20051;-85
2022/03/13 11:06:15;;;;;;;12.48;11.18;;;;;;;;;;5050545;28;20055;-85
2022/03/13 11:08:41;;;;;;;12.23;11.02;;;;;;;;;;5057720;28;20032;-85
2022/03/13 11:11:08;;;;;;;12.18;10.98;;;;;;;;;;5054222;28;20479;-85
2022/03/13 11:13:35;;;;;;;12.63;11.35;;;;;;;;;;5051291;28;20037;-85
2022/03/13 11:16:03;;;;;;;12.27;10.70;;;;;;;;;;5052854;28;20060;-85
2022/03/13 11:18:32;;;;;;;12.85;11.63;;;;;;;;;;5056551;28;20041;-87
2022/03/13 11:20:59;;;;;;;12.65;11.35;;;;;;;;;;5047452;28;20131;-85
2022/03/13 11:23:30;;;;;;;12.27;11.07;;;;;;;;;;5049874;28;20041;-85
2022/03/13 11:25:56;;;;;;;12.55;11.35;;;;;;;;;;5049271;28;20041;-85
2022/03/13 11:28:32;;;;;;;11.48;10.38;;;;;;;;;;5043775;28;20068;-86
2022/03/13 11:30:58;;;;;;;12.45;11.32;;;;;;;;;;5043688;28;20043;-86
2022/03/13 11:33:44;;;;;;;12.35;11.02;;;;;;;;;;5050260;28;20499;-86
2022/03/13 11:36:29;;;;;;;11.80;10.55;;;;;;;;;;5049007;28;20059;-86
2022/03/13 11:39:03;;;;;;;11.80;10.40;;;;;;;;;;5045695;28;20476;-87
2022/03/13 11:41:34;;;;;;;12.45;11.15;;;;;;;;;;5044681;28;20052;-85
2022/03/13 11:44:28;;;;;;;12.93;11.63;;;;;;;;;;5043216;28;20095;-85
2022/03/13 11:46:58;;;;;;;12.10;10.85;;;;;;;;;;5043678;28;20404;-87
2022/03/13 11:49:42;;;;;;;12.10;10.85;;;;;;;;;;5064507;28;20123;-88
2022/03/13 11:52:11;;;;;;;12.55;11.25;;;;;;;;;;5072771;28;20036;-87
2022/03/13 11:54:46;;;;;;;12.77;11.48;;;;;;;;;;5070692;28;20040;-87
2022/03/13 11:57:13;;;;;;;12.15;10.88;;;;;;;;;;5051391;28;20029;-75
2022/03/13 12:02:46;;;;;;;12.45;11.25;;;;;;;;;;5088950;28;20052;-84
2022/03/13 12:05:33;;;;;;;11.40;10.30;;;;;;;;;;5055081;28;20047;-87
2022/03/13 12:08:08;;;;;;;11.27;10.05;;;;;;;;;;5068143;28;20033;-84
2022/03/13 12:10:46;;;;;;;11.52;10.43;;;;;;;;;;5054108;28;20124;-84
2022/03/13 12:13:17;;;;;;;11.38;10.00;;;;;;;;;;5069665;28;20096;-86
2022/03/13 12:15:44;;;;;;;12.70;11.40;;;;;;;;;;5070081;28;20055;-86
2022/03/13 12:18:29;;;;;;;11.25;10.18;;;;;;;;;;5046669;28;20045;-82
2022/03/13 12:21:05;;;;;;;10.93;9.82;;;;;;;;;;5044060;28;20377;-81
2022/03/13 12:23:33;;;;;;;12.25;10.55;;;;;;;;;;5087000;28;20044;-78
2022/03/13 12:26:15;;;;;;;11.00;9.90;;;;;;;;;;5037658;28;20114;-81
2022/03/13 12:28:41;;;;;;;10.70;9.70;;;;;;;;;;5057912;28;20040;-83
2022/03/13 12:31:07;;;;;;;11.88;10.77;;;;;;;;;;5044087;28;20051;-81
2022/03/13 12:33:37;;;;;;;10.77;9.57;;;;;;;;;;5066857;28;20032;-83
2022/03/13 12:36:03;;;;;;;10.20;9.20;;;;;;;;;;5068864;28;20037;-84
2022/03/13 12:38:31;;;;;;;10.05;9.15;;;;;;;;;;5051825;28;20044;-83
2022/03/13 12:40:58;;;;;;;10.13;9.15;;;;;;;;;;5074912;28;20055;-83
2022/03/13 12:43:25;;;;;;;10.48;9.48;;;;;;;;;;5061598;28;20438;-83
2022/03/13 12:45:52;;;;;;;10.90;9.80;;;;;;;;;;5043625;28;20067;-82
2022/03/13 12:48:18;;;;;;;11.13;10.13;;;;;;;;;;5056904;28;20060;-85
2022/03/13 12:50:47;;;;;;;11.40;10.30;;;;;;;;;;5057729;28;20044;-87
2022/03/13 12:53:22;;;;;;;10.93;9.82;;;;;;;;;;5060595;28;20041;-91
2022/03/13 12:55:52;;;;;;;11.13;10.10;;;;;;;;;;5050453;28;20072;-87
2022/03/13 12:58:19;;;;;;;11.23;10.15;;;;;;;;;;5078373;28;20101;-85
2022/03/13 13:00:46;;;;;;;11.07;9.95;;;;;;;;;;5049023;28;20040;-83
2022/03/13 13:03:13;;;;;;;10.50;9.50;;;;;;;;;;5070954;28;20034;-83
2022/03/13 13:05:47;;;;;;;10.73;9.63;;;;;;;;;;5051510;28;20048;-84
2022/03/13 13:08:13;;;;;;;10.55;9.60;;;;;;;;;;5058628;28;20040;-83
2022/03/13 13:10:39;;;;;;;10.57;9.48;;;;;;;;;;5074816;28;20032;-84
2022/03/13 13:13:07;;;;;;;10.50;9.60;;;;;;;;;;5075439;28;20038;-83
2022/03/13 13:15:34;;;;;;;10.38;9.30;;;;;;;;;;5061589;28;20071;-85
2022/03/13 13:18:00;;;;;;;11.60;9.38;;;;;;;;;;5064797;28;20048;-83
2022/03/13 13:20:27;;;;;;;9.95;8.98;;;;;;;;;;5038500;28;20500;-87
2022/03/13 13:23:07;;;;;;;10.65;9.32;;;;;;;;;;5048412;28;20044;-87
2022/03/13 13:25:34;;;;;;;11.45;10.05;;;;;;;;;;5037991;28;20055;-87
2022/03/13 13:28:02;;;;;;;11.27;10.27;;;;;;;;;;5044891;28;20048;-84
2022/03/13 13:30:34;;;;;;;10.90;9.90;;;;;;;;;;5074005;28;20052;-86
2022/03/13 13:33:13;;;;;;;10.50;9.50;;;;;;;;;;5044052;28;20056;-84
2022/03/13 13:35:44;;;;;;;10.65;9.65;;;;;;;;;;5053327;28;20040;-83
2022/03/13 13:38:17;;;;;;;10.02;9.02;;;;;;;;;;5072473;28;20483;-84
2022/03/13 13:40:47;;;;;;;10.30;9.43;;;;;;;;;;5052591;28;20110;-84
2022/03/13 13:43:24;;;;;;;10.27;9.30;;;;;;;;;;5054540;28;20036;-82
2022/03/13 13:45:50;;;;;;;10.32;9.35;;;;;;;;;;5049633;28;20488;-85
2022/03/13 13:48:20;;;;;;;10.70;9.68;;;;;;;;;;5033905;28;20057;-84
2022/03/13 13:50:48;;;;;;;10.18;9.25;;;;;;;;;;5040483;28;20139;-85
2022/03/13 13:53:14;;;;;;;10.32;9.32;;;;;;;;;;5034117;28;20099;-85
2022/03/13 13:55:41;;;;;;;9.48;8.57;;;;;;;;;;5052085;28;20040;-84
2022/03/13 13:58:25;;;;;;;9.60;8.70;;;;;;;;;;5059007;28;20048;-83
2022/03/13 14:00:51;;;;;;;9.68;8.77;;;;;;;;;;5042858;28;20769;-84
2022/03/13 14:03:19;;;;;;;9.45;8.55;;;;;;;;;;5053028;28;20120;-84
2022/03/13 14:05:45;;;;;;;8.82;8.02;;;;;;;;;;5046830;28;20048;-84
2022/03/13 14:08:11;;;;;;;9.15;8.25;;;;;;;;;;5053847;28;20041;-83
2022/03/13 14:10:37;;;;;;;9.35;8.45;;;;;;;;;;5054592;28;20045;-83
2022/03/13 14:13:03;;;;;;;8.30;7.50;;;;;;;;;;5051820;28;20041;-83
2022/03/13 14:15:29;;;;;;;8.02;7.05;;;;;;;;;;5046071;28;20040;-83
2022/03/13 14:17:56;;;;;;;8.05;7.25;;;;;;;;;;5045888;28;20580;-85
2022/03/13 14:20:22;;;;;;;8.45;7.60;;;;;;;;;;5047216;28;20123;-82
2022/03/13 14:22:48;;;;;;;8.32;7.53;;;;;;;;;;5050686;28;20044;-83
2022/03/13 14:25:14;;;;;;;8.55;7.75;;;;;;;;;;5055730;28;20100;-83
2022/03/13 14:27:41;;;;;;;8.52;7.45;;;;;;;;;;5046064;28;20040;-82